Time;durP1;ratioP1;P1;durP2;ratioP2;P2;SDS_P1;SDS_P2;PMS_P1;PMS_P2;Temp;Humidity;BMP_temperature;BMP_pressure;BME280_temperature;BME280_humidity;BME280_pressure;Samples;Min_cycle;Max_cycle;Signal;HPM_P1;HPM_P2
2021/08/12 00:00:58;;;;;;;19.83;13.15;;;;;;;16.73;50.84;99994.88;5112378;28;20126;-79
2021/08/12 00:03:24;;;;;;;21.42;12.77;;;;;;;16.74;51.04;100005.59;5099719;28;20044;-79
2021/08/12 00:05:50;;;;;;;21.02;13.48;;;;;;;16.79;50.86;100007.00;5095593;28;20073;-80
2021/08/12 00:08:15;;;;;;;22.23;13.13;;;;;;;16.90;50.83;100017.63;5063107;28;20036;-80
2021/08/12 00:10:41;;;;;;;24.30;13.48;;;;;;;16.89;50.70;100013.22;5102276;28;20562;-79
2021/08/12 00:13:07;;;;;;;28.30;13.25;;;;;;;16.80;50.74;100016.78;5108563;28;20040;-81
2021/08/12 00:15:33;;;;;;;21.80;12.35;;;;;;;16.75;50.88;100020.78;5085725;28;20051;-78
2021/08/12 00:17:59;;;;;;;24.13;13.70;;;;;;;16.72;50.53;100004.84;5124387;28;20077;-80
2021/08/12 00:20:25;;;;;;;20.45;12.93;;;;;;;16.63;50.75;100005.72;5098651;28;20100;-80
2021/08/12 00:22:51;;;;;;;27.58;12.35;;;;;;;16.58;50.91;100032.28;5116162;28;20071;-81
2021/08/12 00:25:17;;;;;;;25.08;13.40;;;;;;;16.60;50.85;100035.69;5065603;28;20123;-79
2021/08/12 00:27:43;;;;;;;19.30;11.95;;;;;;;16.58;50.95;100032.28;5116399;28;20090;-80
2021/08/12 00:30:09;;;;;;;17.67;12.30;;;;;;;16.46;51.02;100030.72;5082811;28;20047;-80
2021/08/12 00:32:35;;;;;;;21.42;12.00;;;;;;;16.49;51.47;100035.84;5099286;28;20039;-79
2021/08/12 00:35:01;;;;;;;24.13;13.10;;;;;;;16.48;51.66;100031.47;5099520;28;20053;-80
2021/08/12 00:37:27;;;;;;;20.65;12.98;;;;;;;16.46;51.45;100033.44;5065893;28;20046;-79
2021/08/12 00:39:55;;;;;;;20.27;12.10;;;;;;;16.53;51.43;100042.66;5083019;28;20061;-79
2021/08/12 00:42:22;;;;;;;21.38;11.95;;;;;;;16.56;51.36;100044.22;5098435;28;20846;-79
2021/08/12 00:44:48;;;;;;;19.00;11.48;;;;;;;16.49;51.11;100038.56;5065787;28;20067;-80
2021/08/12 00:47:15;;;;;;;21.27;12.18;;;;;;;16.42;51.60;100048.22;5065688;28;20047;-81
2021/08/12 00:49:41;;;;;;;21.17;13.00;;;;;;;16.32;51.25;100042.81;5098430;28;20055;-79
2021/08/12 00:52:12;;;;;;;22.48;12.55;;;;;;;16.34;51.68;100050.78;5081681;28;20043;-79
2021/08/12 00:54:40;;;;;;;24.38;12.55;;;;;;;16.31;51.81;100042.97;5081686;28;20051;-79
2021/08/12 00:57:06;;;;;;;22.90;12.27;;;;;;;16.37;51.85;100043.25;5047963;28;20051;-79
2021/08/12 00:59:37;;;;;;;17.52;11.95;;;;;;;16.41;51.84;100038.41;5048316;28;20036;-78
2021/08/12 01:02:07;;;;;;;25.85;12.57;;;;;;;16.49;51.74;100055.59;5082341;28;20039;-78
2021/08/12 01:04:34;;;;;;;19.48;12.88;;;;;;;16.28;51.95;100046.78;5048211;28;20044;-78
2021/08/12 01:07:13;;;;;;;23.00;12.45;;;;;;;16.33;51.87;100052.63;5064595;28;20058;-78
2021/08/12 01:09:47;;;;;;;22.73;12.48;;;;;;;16.38;51.97;100065.69;5049894;28;20119;-79
2021/08/12 01:12:20;;;;;;;20.23;12.20;;;;;;;16.37;51.80;100058.59;5097885;28;20092;-78
2021/08/12 01:15:10;;;;;;;20.98;13.00;;;;;;;16.38;51.67;100062.97;5064858;28;20375;-79
2021/08/12 01:17:45;;;;;;;21.73;12.18;;;;;;;16.43;52.07;100060.69;5064277;28;20093;-80
2021/08/12 01:20:14;;;;;;;21.58;12.60;;;;;;;16.27;52.15;100043.25;5064678;28;20367;-80
2021/08/12 01:22:45;;;;;;;20.55;12.50;;;;;;;16.43;51.87;100074.19;5080650;28;20044;-83
2021/08/12 01:25:26;;;;;;;19.35;12.55;;;;;;;16.40;52.22;100080.75;5064503;28;20047;-79
2021/08/12 01:27:53;;;;;;;24.75;13.07;;;;;;;16.42;52.04;100075.19;5065185;28;20516;-79
2021/08/12 01:30:27;;;;;;;22.55;12.57;;;;;;;16.42;52.07;100077.91;5047573;28;20044;-79
2021/08/12 01:33:25;;;;;;;21.65;12.80;;;;;;;16.54;51.82;100078.59;5081292;28;20039;-79
2021/08/12 01:35:51;;;;;;;17.92;12.07;;;;;;;16.65;51.73;100082.00;5046196;28;20051;-79
2021/08/12 01:38:21;;;;;;;22.85;13.07;;;;;;;16.61;51.71;100075.19;5080328;28;20044;-80
2021/08/12 01:40:47;;;;;;;18.70;12.48;;;;;;;16.66;51.42;100083.72;5080632;28;20064;-80
2021/08/12 01:43:19;;;;;;;24.83;13.40;;;;;;;16.53;51.74;100077.75;5064110;28;20074;-81
2021/08/12 01:45:54;;;;;;;23.98;13.10;;;;;;;16.69;51.60;100088.81;5047852;28;20074;-79
2021/08/12 01:48:24;;;;;;;22.95;12.85;;;;;;;16.82;51.28;100090.41;5063494;28;20410;-80
2021/08/12 01:50:52;;;;;;;21.60;13.63;;;;;;;16.74;51.52;100097.38;5047385;28;20035;-80
2021/08/12 01:53:21;;;;;;;21.88;13.25;;;;;;;16.73;51.53;100098.34;5113457;28;20406;-80
2021/08/12 01:55:48;;;;;;;28.98;13.75;;;;;;;16.68;51.42;100102.47;5063624;28;20067;-80
2021/08/12 01:58:15;;;;;;;25.38;13.32;;;;;;;16.62;51.86;100103.88;5046640;28;20050;-79
2021/08/12 02:00:47;;;;;;;22.75;13.20;;;;;;;16.67;52.04;100095.38;5046586;28;20048;-81
2021/08/12 02:03:15;;;;;;;31.90;14.27;;;;;;;16.80;51.52;100104.03;5080525;28;20054;-80
2021/08/12 02:05:44;;;;;;;24.85;14.23;;;;;;;16.67;51.65;100096.22;5063182;28;20078;-80
2021/08/12 02:08:10;;;;;;;23.90;14.00;;;;;;;16.71;51.56;100102.19;5063605;28;20066;-78
2021/08/12 02:10:36;;;;;;;33.28;15.07;;;;;;;16.64;52.16;100099.19;5079694;28;20082;-77
2021/08/12 02:13:02;;;;;;;27.20;13.88;;;;;;;16.63;51.61;100100.19;5079611;28;20039;-79
2021/08/12 02:15:28;;;;;;;26.60;14.73;;;;;;;16.69;51.61;100099.59;5062698;28;20130;-79
2021/08/12 02:17:54;;;;;;;29.70;14.13;;;;;;;16.83;51.36;100094.81;5079595;28;20071;-77
2021/08/12 02:20:20;;;;;;;29.17;15.05;;;;;;;17.01;51.03;100098.47;5079296;28;20089;-78
2021/08/12 02:23:07;;;;;;;26.63;15.45;;;;;;;17.23;50.49;100106.22;5096660;28;20456;-78
2021/08/12 02:25:41;;;;;;;30.98;15.05;;;;;;;17.23;50.32;100106.22;5079388;28;20502;-78
2021/08/12 02:28:08;;;;;;;28.05;14.82;;;;;;;17.17;50.52;100106.81;5079518;28;20054;-79
2021/08/12 02:30:36;;;;;;;32.97;15.82;;;;;;;17.39;50.05;100112.84;5069210;28;20054;-88
2021/08/12 02:33:02;;;;;;;26.70;14.65;;;;;;;17.57;50.02;100121.06;5083228;28;20041;-85
2021/08/12 02:35:29;;;;;;;28.73;15.50;;;;;;;17.75;49.65;100118.38;5081113;28;20045;-87
2021/08/12 02:37:55;;;;;;;33.80;15.48;;;;;;;17.79;49.11;100103.59;5082128;28;20092;-81
2021/08/12 02:40:21;;;;;;;35.50;16.38;;;;;;;17.75;49.04;100110.28;5096904;28;20522;-85
2021/08/12 02:42:47;;;;;;;31.95;16.98;;;;;;;17.76;48.97;100114.72;5099097;28;20052;-86
2021/08/12 02:45:13;;;;;;;35.22;16.50;;;;;;;17.72;49.28;100131.22;5065947;28;20082;-81
2021/08/12 02:47:40;;;;;;;29.27;17.27;;;;;;;17.92;48.24;100110.34;5112856;28;20071;-83
2021/08/12 02:50:08;;;;;;;37.15;18.60;;;;;;;18.02;48.27;100106.75;5096090;28;20047;-86
2021/08/12 02:52:34;;;;;;;34.13;18.10;;;;;;;18.15;48.32;100121.59;5045999;28;20501;-84
2021/08/12 02:55:01;;;;;;;28.02;17.55;;;;;;;18.23;48.05;100128.09;5063332;28;20051;-80
2021/08/12 02:57:29;;;;;;;36.08;17.90;;;;;;;18.43;47.81;100126.97;5095795;28;20057;-79
2021/08/12 02:59:55;;;;;;;38.38;18.30;;;;;;;18.50;47.51;100122.63;5061899;28;20047;-80
2021/08/12 03:02:21;;;;;;;37.30;18.55;;;;;;;18.58;47.23;100121.84;5078037;28;20093;-78
2021/08/12 03:04:47;;;;;;;37.15;18.50;;;;;;;18.61;47.44;100130.50;5047258;28;20437;-78
2021/08/12 03:07:13;;;;;;;36.65;18.58;;;;;;;18.46;47.43;100113.13;5074868;28;20036;-78
2021/08/12 03:09:39;;;;;;;34.40;17.67;;;;;;;18.51;47.23;100127.06;5054610;28;20058;-77
2021/08/12 03:12:06;;;;;;;32.58;18.83;;;;;;;18.71;47.25;100143.16;5078337;28;20100;-76
2021/08/12 03:14:32;;;;;;;36.70;19.08;;;;;;;18.79;46.62;100140.53;5078393;28;20046;-77
2021/08/12 03:16:58;;;;;;;38.15;19.10;;;;;;;18.76;47.03;100140.84;5044852;28;20039;-76
2021/08/12 03:19:25;;;;;;;35.80;19.20;;;;;;;18.74;47.03;100145.56;5078601;28;20075;-78
2021/08/12 03:21:59;;;;;;;36.33;19.58;;;;;;;18.69;47.02;100148.69;5078408;28;20097;-78
2021/08/12 03:24:25;;;;;;;38.35;19.58;;;;;;;18.80;46.86;100155.75;5061448;28;20035;-77
2021/08/12 03:26:53;;;;;;;49.83;20.63;;;;;;;18.87;46.90;100151.44;5094752;28;20096;-78
2021/08/12 03:29:20;;;;;;;43.15;21.77;;;;;;;18.93;46.92;100165.22;5095074;28;20039;-78
2021/08/12 03:31:46;;;;;;;43.95;20.30;;;;;;;19.01;46.46;100155.44;5078251;28;20035;-78
2021/08/12 03:34:12;;;;;;;41.05;19.52;;;;;;;19.15;46.52;100155.72;5078156;28;20069;-78
2021/08/12 03:36:38;;;;;;;39.35;20.75;;;;;;;19.12;46.24;100149.78;5077707;28;20494;-78
2021/08/12 03:39:04;;;;;;;36.30;20.48;;;;;;;19.22;46.28;100157.78;5077656;28;20039;-79
2021/08/12 03:41:30;;;;;;;40.33;21.63;;;;;;;19.29;45.65;100161.56;5077839;28;20068;-80
2021/08/12 03:43:56;;;;;;;39.92;21.10;;;;;;;19.31;45.89;100162.28;5061173;28;20036;-79
2021/08/12 03:46:23;;;;;;;39.70;20.40;;;;;;;19.15;45.94;100153.03;5094687;28;20044;-76
2021/08/12 03:48:50;;;;;;;43.20;21.10;;;;;;;19.20;46.02;100162.53;5077958;28;20044;-84
2021/08/12 03:51:16;;;;;;;39.88;19.65;;;;;;;19.37;45.67;100164.38;5060872;28;20064;-78
2021/08/12 03:53:42;;;;;;;44.60;21.50;;;;;;;19.44;45.63;100165.41;5114079;28;20435;-77
2021/08/12 03:56:09;;;;;;;40.55;21.40;;;;;;;19.49;45.11;100164.94;5063526;28;20040;-76
2021/08/12 03:58:37;;;;;;;40.65;22.00;;;;;;;19.54;44.84;100168.00;5098475;28;20387;-77
2021/08/12 04:01:04;;;;;;;39.55;22.17;;;;;;;19.55;44.85;100173.25;5081840;28;20051;-77
2021/08/12 04:03:30;;;;;;;38.28;21.48;;;;;;;19.59;44.81;100161.06;5080795;28;20172;-84
2021/08/12 04:05:56;;;;;;;44.63;22.10;;;;;;;19.76;44.80;100166.66;5047886;28;20050;-77
2021/08/12 04:08:22;;;;;;;46.25;22.33;;;;;;;19.79;44.61;100169.88;5116590;28;20043;-78
2021/08/12 04:10:50;;;;;;;42.53;21.90;;;;;;;19.77;44.66;100173.75;5064035;28;20065;-77
2021/08/12 04:13:16;;;;;;;40.45;21.88;;;;;;;19.53;44.89;100178.00;5081601;28;20436;-78
2021/08/12 04:15:42;;;;;;;43.17;23.30;;;;;;;19.44;44.73;100168.09;5047630;28;20044;-79
2021/08/12 04:18:09;;;;;;;44.60;22.13;;;;;;;19.18;45.29;100162.66;5048051;28;20390;-79
2021/08/12 04:20:34;;;;;;;41.63;22.48;;;;;;;19.38;45.31;100179.59;5097482;28;20051;-79
2021/08/12 04:23:00;;;;;;;40.17;21.75;;;;;;;19.55;44.96;100165.13;5080808;28;20035;-78
2021/08/12 04:25:26;;;;;;;39.00;21.88;;;;;;;19.79;44.35;100167.16;5080148;28;20067;-78
2021/08/12 04:27:52;;;;;;;40.67;22.08;;;;;;;19.92;44.24;100172.13;5097551;28;20479;-78
2021/08/12 04:30:20;;;;;;;37.90;21.67;;;;;;;20.02;43.60;100172.88;5047223;28;20035;-79
2021/08/12 04:32:46;;;;;;;40.22;22.70;;;;;;;20.11;43.51;100174.59;5064088;28;20092;-78
2021/08/12 04:35:13;;;;;;;37.03;21.90;;;;;;;20.18;43.35;100155.78;5080610;28;20073;-78
2021/08/12 04:37:45;;;;;;;36.55;21.73;;;;;;;20.47;42.99;100168.94;5063977;28;20456;-78
2021/08/12 04:40:15;;;;;;;42.78;21.58;;;;;;;20.60;42.40;100182.03;5080525;28;20058;-79
2021/08/12 04:42:45;;;;;;;37.05;22.10;;;;;;;20.51;42.42;100177.63;5047089;28;20064;-78
2021/08/12 04:45:11;;;;;;;37.67;21.52;;;;;;;20.40;42.74;100165.19;5081127;28;20059;-76
2021/08/12 04:47:37;;;;;;;47.03;21.60;;;;;;;20.55;42.54;100171.69;5079942;28;20040;-77
2021/08/12 04:50:04;;;;;;;37.63;22.27;;;;;;;20.64;42.50;100174.41;5063706;28;20465;-77
2021/08/12 04:52:31;;;;;;;33.47;20.83;;;;;;;20.73;42.40;100152.53;5097370;28;20047;-76
2021/08/12 04:54:58;;;;;;;38.40;21.33;;;;;;;20.84;42.31;100162.22;5046380;28;20092;-79
2021/08/12 04:57:24;;;;;;;41.95;22.10;;;;;;;20.81;42.46;100157.97;5063718;28;20046;-77
2021/08/12 04:59:50;;;;;;;36.03;20.92;;;;;;;21.02;42.22;100154.72;5097236;28;20047;-79
2021/08/12 05:02:16;;;;;;;47.03;23.38;;;;;;;20.91;42.21;100146.06;5063420;28;20066;-78
2021/08/12 05:04:43;;;;;;;35.15;21.40;;;;;;;20.90;42.13;100150.66;5080533;28;20040;-77
2021/08/12 05:07:09;;;;;;;36.65;21.88;;;;;;;20.96;42.06;100136.41;5097021;28;20594;-77
2021/08/12 05:09:35;;;;;;;40.20;21.63;;;;;;;21.15;41.84;100147.94;5079294;28;20201;-77
2021/08/12 05:12:02;;;;;;;35.90;21.05;;;;;;;21.28;41.60;100131.94;5046665;28;20052;-77
2021/08/12 05:14:30;;;;;;;39.35;21.88;;;;;;;21.26;41.65;100144.88;5064225;28;20048;-77
2021/08/12 05:16:56;;;;;;;42.25;21.30;;;;;;;21.43;41.66;100141.13;5063346;28;20542;-77
2021/08/12 05:19:22;;;;;;;37.42;20.98;;;;;;;21.46;41.42;100138.06;5046546;28;20044;-77
2021/08/12 05:21:48;;;;;;;38.63;20.25;;;;;;;21.66;41.34;100135.78;5079676;28;20567;-76
2021/08/12 05:24:15;;;;;;;37.42;20.58;;;;;;;21.17;41.46;100135.84;5044002;28;20050;-76
2021/08/12 05:26:41;;;;;;;33.38;20.48;;;;;;;20.73;42.48;100116.38;5063236;28;20513;-78
2021/08/12 05:29:07;;;;;;;34.70;20.35;;;;;;;21.07;42.15;100129.78;5044359;28;20047;-75
2021/08/12 05:31:34;;;;;;;56.35;22.08;;;;;;;21.26;41.61;100132.13;5092915;28;20036;-77
2021/08/12 05:34:00;;;;;;;44.42;20.80;;;;;;;;;;5060102;28;20039;-83
2021/08/12 05:36:26;;;;;;;37.83;21.35;;;;;;;21.72;40.76;100116.03;5076636;28;20040;-77
2021/08/12 05:38:53;;;;;;;38.47;21.10;;;;;;;21.87;40.53;100127.03;5058883;28;20052;-78
2021/08/12 05:41:19;;;;;;;36.55;21.92;;;;;;;21.49;41.12;100128.72;5075892;28;20109;-77
2021/08/12 05:43:45;;;;;;;33.83;21.08;;;;;;;21.54;41.09;100129.03;5042821;28;20060;-77
2021/08/12 05:46:12;;;;;;;37.08;21.70;;;;;;;21.74;40.99;100132.19;5043298;28;20048;-76
2021/08/12 05:48:38;;;;;;;36.47;21.75;;;;;;;21.94;40.64;100144.38;5059622;28;20051;-78
2021/08/12 05:51:04;;;;;;;35.97;20.13;;;;;;;22.06;40.04;100132.06;5042804;28;20142;-79
2021/08/12 05:53:31;;;;;;;40.97;22.52;;;;;;;21.99;39.86;100131.06;5058435;28;20067;-79
2021/08/12 05:55:57;;;;;;;37.58;21.48;;;;;;;22.02;39.76;100133.44;5092715;28;20071;-77
2021/08/12 05:58:23;;;;;;;40.17;21.48;;;;;;;22.14;40.09;100144.81;5058953;28;20382;-77
2021/08/12 06:00:49;;;;;;;44.35;21.50;;;;;;;22.23;39.84;100134.75;5075696;28;20110;-77
2021/08/12 06:03:15;;;;;;;40.05;21.23;;;;;;;22.35;39.70;100130.56;5075046;28;20074;-78
2021/08/12 06:05:42;;;;;;;34.40;20.48;;;;;;;22.54;39.27;100119.19;5042545;28;20525;-78
2021/08/12 06:08:11;;;;;;;46.20;22.40;;;;;;;22.78;39.07;100125.47;5041799;28;20363;-77
2021/08/12 06:10:37;;;;;;;;;;;;;;;23.03;38.68;100129.72;5075862;28;20048;-75
2021/08/12 06:13:03;;;;;;;47.83;20.83;;;;;;;22.97;38.21;100114.09;5075035;28;19926;-78
2021/08/12 06:15:32;;;;;;;42.65;21.65;;;;;;;22.87;37.83;100129.84;5078755;28;20146;-75
2021/08/12 06:17:58;;;;;;;40.03;20.65;;;;;;;22.97;38.22;100130.47;5078845;28;20448;-76
2021/08/12 06:20:24;;;;;;;34.65;21.92;;;;;;;23.01;37.89;100126.31;5045173;28;20035;-76
2021/08/12 06:22:52;;;;;;;41.72;22.58;;;;;;;23.09;37.85;100119.09;5061312;28;20085;-77
2021/08/12 06:25:18;;;;;;;40.42;21.75;;;;;;;23.14;37.64;100094.88;5077874;28;20460;-77
2021/08/12 06:27:45;;;;;;;41.58;23.88;;;;;;;23.30;37.84;100112.94;5061669;28;20036;-76
2021/08/12 06:30:11;;;;;;;41.10;21.95;;;;;;;23.43;37.36;100097.63;5095474;28;20043;-77
2021/08/12 06:32:39;;;;;;;40.50;21.02;;;;;;;23.66;36.90;100108.47;5078814;28;20048;-75
2021/08/12 06:35:06;;;;;;;44.90;22.33;;;;;;;23.60;37.41;100101.00;5095155;28;20117;-77
2021/08/12 06:37:46;;;;;;;39.13;21.50;;;;;;;23.72;36.73;100098.69;5060816;28;20120;-77
2021/08/12 06:40:16;;;;;;;40.70;23.48;;;;;;;23.56;36.66;100104.31;5076064;28;20126;-75
2021/08/12 06:42:42;;;;;;;40.80;23.42;;;;;;;23.05;36.80;100090.53;5068623;28;20139;-76
2021/08/12 06:45:10;;;;;;;41.40;23.75;;;;;;;22.57;37.79;100100.78;5041932;28;20039;-77
2021/08/12 06:47:37;;;;;;;39.30;22.17;;;;;;;22.82;37.99;100094.09;5041860;28;20055;-76
2021/08/12 06:50:05;;;;;;;42.42;22.40;;;;;;;23.22;37.21;100097.50;5042260;28;20054;-75
2021/08/12 06:52:31;;;;;;;41.60;22.35;;;;;;;23.46;37.19;100091.78;5057350;28;20448;-76
2021/08/12 06:54:57;;;;;;;60.30;23.52;;;;;;;23.79;36.51;100083.22;5058042;28;20047;-76
2021/08/12 06:57:23;;;;;;;43.28;23.52;;;;;;;23.94;35.71;100081.31;5057477;28;20070;-76
2021/08/12 06:59:49;;;;;;;51.35;24.33;;;;;;;24.17;35.69;100089.34;5057874;28;20390;-77
2021/08/12 07:02:17;;;;;;;41.50;22.75;;;;;;;24.28;35.01;100078.97;5041639;28;20055;-75
2021/08/12 07:04:44;;;;;;;36.05;21.88;;;;;;;24.02;35.43;100082.25;5041537;28;20062;-78
2021/08/12 07:07:10;;;;;;;46.10;22.48;;;;;;;23.63;36.11;100086.16;5056780;28;20040;-78
2021/08/12 07:09:37;;;;;;;37.95;22.95;;;;;;;23.54;36.45;100084.53;5057577;28;20523;-75
2021/08/12 07:12:04;;;;;;;36.13;22.58;;;;;;;23.40;36.55;100086.25;5057837;28;20040;-83
2021/08/12 07:14:33;;;;;;;36.92;23.40;;;;;;;23.38;36.33;100082.84;5059497;28;20048;-79
2021/08/12 07:17:00;;;;;;;38.70;23.48;;;;;;;23.45;36.18;100075.59;5091093;28;20548;-75
2021/08/12 07:19:27;;;;;;;39.67;23.50;;;;;;;23.83;35.78;100076.34;5073947;28;20498;-77
2021/08/12 07:21:53;;;;;;;38.60;24.13;;;;;;;23.86;35.46;100069.66;5074166;28;20048;-77
2021/08/12 07:24:19;;;;;;;39.85;23.88;;;;;;;23.84;35.57;100083.50;5057309;28;20046;-77
2021/08/12 07:26:49;;;;;;;38.38;23.27;;;;;;;23.79;35.45;100080.50;5057176;28;20478;-77
2021/08/12 07:29:17;;;;;;;38.33;23.08;;;;;;;23.81;35.19;100083.03;5058468;28;20114;-76
2021/08/12 07:31:43;;;;;;;36.55;21.98;;;;;;;23.93;35.31;100082.38;5073861;28;20507;-77
2021/08/12 07:34:10;;;;;;;42.85;23.08;;;;;;;24.28;35.18;100077.09;5057207;28;20130;-77
2021/08/12 07:36:37;;;;;;;39.22;23.00;;;;;;;24.44;34.31;100084.22;5074021;28;20048;-79
2021/08/12 07:39:05;;;;;;;38.15;23.27;;;;;;;24.17;35.11;100072.13;5041804;28;20070;-77
2021/08/12 07:41:35;;;;;;;40.92;23.67;;;;;;;24.24;34.60;100062.97;5040543;28;20096;-78
2021/08/12 07:44:04;;;;;;;43.30;23.33;;;;;;;24.23;34.58;100071.38;5090608;28;20127;-76
2021/08/12 07:46:29;;;;;;;;;;;;;;;24.41;34.56;100074.53;5092114;28;20051;-77
2021/08/12 07:48:56;;;;;;;47.17;26.23;;;;;;;24.35;34.04;100078.00;5093715;28;19924;-76
2021/08/12 07:51:23;;;;;;;50.70;25.50;;;;;;;24.64;34.51;100073.50;5040880;28;20092;-77
2021/08/12 07:53:53;;;;;;;41.83;23.00;;;;;;;24.76;34.02;100069.16;5073715;28;20059;-77
2021/08/12 07:56:19;;;;;;;65.45;25.88;;;;;;;25.04;33.46;100074.66;5040722;28;20115;-77
2021/08/12 07:58:46;;;;;;;61.28;24.88;;;;;;;25.29;32.88;100058.66;5073674;28;20051;-77
2021/08/12 08:01:12;;;;;;;58.13;25.98;;;;;;;25.50;32.92;100067.81;5057020;28;20044;-78
2021/08/12 08:03:39;;;;;;;56.17;25.52;;;;;;;25.72;32.93;100068.56;5074306;28;20036;-78
2021/08/12 08:06:05;;;;;;;55.75;26.65;;;;;;;25.81;32.17;100054.53;5057492;28;20040;-77
2021/08/12 08:08:31;;;;;;;43.17;26.90;;;;;;;25.66;32.39;100062.03;5074423;28;20624;-78
2021/08/12 08:10:57;;;;;;;51.63;26.02;;;;;;;26.11;31.85;100059.69;5094013;28;20035;-78
2021/08/12 08:13:23;;;;;;;59.15;27.95;;;;;;;26.43;31.12;100068.19;5110687;28;20052;-79
2021/08/12 08:15:49;;;;;;;59.33;27.38;;;;;;;26.52;30.86;100061.50;5060477;28;20103;-77
2021/08/12 08:18:15;;;;;;;57.88;27.27;;;;;;;26.73;31.39;100047.56;5077347;28;20051;-78
2021/08/12 08:20:41;;;;;;;56.47;28.75;;;;;;;27.16;30.71;100058.13;5077307;28;20035;-76
2021/08/12 08:23:08;;;;;;;59.38;28.75;;;;;;;27.30;29.91;100054.28;5110130;28;20036;-76
2021/08/12 08:25:35;;;;;;;50.38;26.45;;;;;;;27.04;30.30;100043.31;5043972;28;20134;-77
2021/08/12 08:28:01;;;;;;;45.67;26.95;;;;;;;27.09;30.06;100060.00;5094164;28;20046;-77
2021/08/12 08:30:28;;;;;;;51.75;26.30;;;;;;;27.05;30.05;100056.00;5076718;28;20456;-77
2021/08/12 08:32:54;;;;;;;49.25;26.98;;;;;;;27.16;30.18;100063.63;5077291;28;20043;-78
2021/08/12 08:35:20;;;;;;;45.75;27.17;;;;;;;27.13;29.80;100063.22;5077279;28;20608;-78
2021/08/12 08:37:47;;;;;;;51.25;27.92;;;;;;;26.64;30.45;100059.81;5060239;28;20494;-77
2021/08/12 08:40:13;;;;;;;47.97;28.67;;;;;;;26.52;30.45;100062.34;5080653;28;20134;-78
2021/08/12 08:42:39;;;;;;;46.67;28.40;;;;;;;26.37;30.77;100059.75;5097295;28;20568;-78
2021/08/12 08:45:05;;;;;;;43.90;27.05;;;;;;;26.50;30.71;100063.59;5080472;28;20131;-78
2021/08/12 08:47:31;;;;;;;49.83;27.90;;;;;;;26.98;30.57;100060.66;5080385;28;20048;-78
2021/08/12 08:49:57;;;;;;;39.47;25.63;;;;;;;27.41;30.14;100058.28;5097212;28;20047;-78
2021/08/12 08:52:23;;;;;;;46.80;26.27;;;;;;;27.42;29.62;100050.88;5080221;28;20047;-79
2021/08/12 08:54:49;;;;;;;44.00;27.23;;;;;;;27.31;29.23;100055.16;5080279;28;20051;-77
2021/08/12 08:57:16;;;;;;;47.05;26.23;;;;;;;27.38;29.52;100041.41;5097198;28;20039;-79
2021/08/12 08:59:42;;;;;;;41.88;25.35;;;;;;;27.66;28.92;100050.19;5080110;28;20039;-78
2021/08/12 09:02:08;;;;;;;49.08;27.70;;;;;;;27.49;28.98;100047.06;5096986;28;20040;-77
2021/08/12 09:04:35;;;;;;;43.30;26.40;;;;;;;27.75;28.90;100048.06;5063477;28;20065;-78
2021/08/12 09:07:03;;;;;;;46.88;25.67;;;;;;;27.63;28.28;100053.34;5071346;28;20039;-79
2021/08/12 09:09:34;;;;;;;42.58;26.08;;;;;;;27.19;28.65;100035.72;5092703;28;20051;-77
2021/08/12 09:12:00;;;;;;;41.72;26.98;;;;;;;27.51;28.87;100046.88;5063503;28;20494;-78
2021/08/12 09:14:37;;;;;;;44.25;24.70;;;;;;;28.09;28.45;100041.34;5079768;28;20044;-80
2021/08/12 09:17:22;;;;;;;50.75;26.15;;;;;;;28.54;27.29;100033.03;5063298;28;20043;-78
2021/08/12 09:20:14;;;;;;;49.35;26.38;;;;;;;28.99;27.17;100046.66;5046553;28;20039;-79
2021/08/12 09:23:02;;;;;;;42.92;25.27;;;;;;;29.22;27.09;100037.75;5078978;28;20067;-79
2021/08/12 09:25:34;;;;;;;40.08;24.23;;;;;;;29.44;26.69;100038.16;5097148;28;20082;-78
2021/08/12 09:28:13;;;;;;;40.95;25.70;;;;;;;29.33;26.30;100030.66;5096659;28;20134;-80
2021/08/12 09:30:39;;;;;;;43.33;24.73;;;;;;;29.30;26.13;100020.94;5079350;28;20044;-76
2021/08/12 09:33:05;;;;;;;47.17;25.40;;;;;;;29.39;26.50;100035.25;5062476;28;20070;-80
2021/08/12 09:35:32;;;;;;;101.07;26.95;;;;;;;29.92;25.66;100034.63;5045843;28;20096;-80
2021/08/12 09:38:09;;;;;;;52.30;24.45;;;;;;;30.23;25.02;100031.66;5079594;28;20514;-78
2021/08/12 09:40:36;;;;;;;;;;;;;;;30.52;25.00;100033.78;5080587;28;20040;-77
2021/08/12 09:43:04;;;;;;;42.75;24.40;;;;;;;30.70;24.33;100031.78;5062431;28;19952;-78
2021/08/12 09:45:31;;;;;;;46.38;24.33;;;;;;;30.80;24.35;100030.38;5096135;28;20043;-77
2021/08/12 09:48:18;;;;;;;41.20;25.02;;;;;;;30.87;24.13;100020.88;5096349;28;20039;-79
2021/08/12 09:50:58;;;;;;;53.30;26.70;;;;;;;30.94;24.32;100015.25;5080597;28;20051;-82
2021/08/12 09:53:26;;;;;;;55.90;26.40;;;;;;;31.19;24.30;100021.38;5064537;28;20122;-80
2021/08/12 09:55:52;;;;;;;56.33;26.08;;;;;;;31.05;24.22;100014.41;5096092;28;20059;-79
2021/08/12 09:58:18;;;;;;;43.97;26.25;;;;;;;31.10;24.15;100014.50;5079280;28;20043;-79
2021/08/12 10:00:48;;;;;;;42.53;25.30;;;;;;;31.42;23.88;100017.75;5061048;28;20060;-79
2021/08/12 10:03:27;;;;;;;43.53;25.05;;;;;;;31.72;23.91;100018.66;5061156;28;20097;-79
2021/08/12 10:05:55;;;;;;;43.65;25.20;;;;;;;31.14;23.18;100020.41;5078035;28;20044;-78
2021/08/12 10:08:35;;;;;;;50.55;25.70;;;;;;;31.02;24.24;100022.34;5081169;28;20105;-79
2021/08/12 10:11:28;;;;;;;45.55;25.50;;;;;;;30.97;23.56;100014.78;5043270;28;20090;-77
2021/08/12 10:14:00;;;;;;;54.53;25.10;;;;;;;31.28;23.64;100015.47;5075267;28;20039;-81
2021/08/12 10:16:28;;;;;;;46.92;26.10;;;;;;;31.55;23.94;100010.28;5092149;28;20039;-79
2021/08/12 10:18:54;;;;;;;60.30;26.73;;;;;;;32.08;22.74;100009.16;5058460;28;20130;-78
2021/08/12 10:21:21;;;;;;;48.08;24.95;;;;;;;32.17;22.91;100014.06;5091202;28;20036;-77
2021/08/12 10:23:57;;;;;;;45.80;24.95;;;;;;;31.79;23.28;100002.78;5089502;28;20130;-77
2021/08/12 10:26:25;;;;;;;54.15;25.30;;;;;;;32.31;22.78;100010.97;5062040;28;20128;-76
2021/08/12 10:28:53;;;;;;;52.08;25.00;;;;;;;32.62;22.67;99999.38;5095417;28;20036;-78
2021/08/12 10:31:22;;;;;;;40.60;23.38;;;;;;;32.70;22.25;100011.13;5078261;28;20078;-77
2021/08/12 10:33:49;;;;;;;42.20;24.02;;;;;;;31.88;22.77;100001.31;5062704;28;20379;-80
2021/08/12 10:36:16;;;;;;;47.67;24.20;;;;;;;32.07;23.08;99988.97;5096219;28;20044;-76
2021/08/12 10:38:44;;;;;;;40.72;24.05;;;;;;;31.67;23.11;99984.31;5074966;28;20039;-77
2021/08/12 10:41:10;;;;;;;39.50;23.58;;;;;;;31.73;22.94;99987.16;5074752;28;20052;-78
2021/08/12 10:43:36;;;;;;;46.28;25.90;;;;;;;31.68;22.73;99991.50;5057760;28;20058;-77
2021/08/12 10:46:03;;;;;;;46.45;25.65;;;;;;;32.03;22.36;99993.31;5058121;28;20032;-79
2021/08/12 10:48:29;;;;;;;43.70;25.08;;;;;;;32.90;21.74;99989.28;5058232;28;20047;-78
2021/08/12 10:50:59;;;;;;;42.55;25.30;;;;;;;33.15;20.69;99996.31;5074025;28;20047;-76
2021/08/12 10:53:24;;;;;;;45.42;25.52;;;;;;;33.02;20.35;99998.34;5092333;28;20490;-76
2021/08/12 10:55:50;;;;;;;48.13;26.73;;;;;;;33.34;20.51;100003.25;5074215;28;20043;-77
2021/08/12 10:58:23;;;;;;;40.90;25.02;;;;;;;33.99;20.16;100002.41;5091104;28;20047;-77
2021/08/12 11:00:56;;;;;;;43.75;25.60;;;;;;;34.69;19.83;99988.66;5074093;28;20059;-77
2021/08/12 11:03:34;;;;;;;43.05;25.80;;;;;;;35.21;19.52;99996.25;5041895;28;20040;-78
2021/08/12 11:06:07;;;;;;;43.83;25.88;;;;;;;35.59;19.64;99985.91;5074391;28;20101;-78
2021/08/12 11:08:48;;;;;;;43.67;25.40;;;;;;;35.38;19.51;100001.63;5058292;28;20130;-77
2021/08/12 11:11:16;;;;;;;48.33;25.15;;;;;;;34.89;19.45;100005.47;5074314;28;20127;-78
2021/08/12 11:13:41;;;;;;;42.47;25.33;;;;;;;34.27;19.78;100003.28;5057660;28;20091;-77
2021/08/12 11:16:08;;;;;;;49.72;25.48;;;;;;;33.86;20.44;100008.34;5074199;28;20040;-78